sensor_id;sensor_type;location;lat;lon;timestamp;pressure;altitude;pressure_sealevel;temperature;humidity
70256;BME280;57669;52.624;-1.688;2022-07-04T00:02:14;101503.52;;;12.81;48.35
70256;BME280;57669;52.624;-1.688;2022-07-04T00:04:40;101507.14;;;12.89;48.22
70256;BME280;57669;52.624;-1.688;2022-07-04T00:07:06;101509.70;;;12.68;48.97
70256;BME280;57669;52.624;-1.688;2022-07-04T00:09:32;101500.90;;;13.04;47.95
70256;BME280;57669;52.624;-1.688;2022-07-04T00:11:57;101507.61;;;12.73;49.11
70256;BME280;57669;52.624;-1.688;2022-07-04T00:14:23;101502.41;;;13.40;47.87
70256;BME280;57669;52.624;-1.688;2022-07-04T00:16:49;101504.87;;;12.76;49.11
70256;BME280;57669;52.624;-1.688;2022-07-04T00:19:14;101505.78;;;12.83;49.14
70256;BME280;57669;52.624;-1.688;2022-07-04T00:21:40;101503.50;;;12.28;49.92
70256;BME280;57669;52.624;-1.688;2022-07-04T00:24:06;101497.82;;;13.02;48.64
70256;BME280;57669;52.624;-1.688;2022-07-04T00:26:32;101496.36;;;12.78;48.32
70256;BME280;57669;52.624;-1.688;2022-07-04T00:28:57;101499.67;;;12.69;48.57
70256;BME280;57669;52.624;-1.688;2022-07-04T00:31:23;101489.89;;;13.26;47.89
70256;BME280;57669;52.624;-1.688;2022-07-04T00:33:49;101492.74;;;12.51;49.12
70256;BME280;57669;52.624;-1.688;2022-07-04T00:36:14;101489.56;;;12.80;48.63
70256;BME280;57669;52.624;-1.688;2022-07-04T00:38:40;101490.48;;;12.21;49.65
70256;BME280;57669;52.624;-1.688;2022-07-04T00:41:06;101485.08;;;12.34;49.60
70256;BME280;57669;52.624;-1.688;2022-07-04T00:43:32;101490.50;;;12.61;49.24
70256;BME280;57669;52.624;-1.688;2022-07-04T00:45:57;101497.19;;;12.04;50.31
70256;BME280;57669;52.624;-1.688;2022-07-04T00:48:23;101494.21;;;12.70;49.13
70256;BME280;57669;52.624;-1.688;2022-07-04T00:50:49;101483.06;;;12.80;48.02
70256;BME280;57669;52.624;-1.688;2022-07-04T00:53:15;101484.53;;;13.19;47.62
70256;BME280;57669;52.624;-1.688;2022-07-04T00:55:41;101482.46;;;13.10;47.31
70256;BME280;57669;52.624;-1.688;2022-07-04T00:58:07;101480.61;;;13.55;46.41
70256;BME280;57669;52.624;-1.688;2022-07-04T01:00:32;101479.62;;;12.66;48.35
70256;BME280;57669;52.624;-1.688;2022-07-04T01:02:58;101473.16;;;13.07;47.92
70256;BME280;57669;52.624;-1.688;2022-07-04T01:05:24;101471.71;;;12.52;48.03
70256;BME280;57669;52.624;-1.688;2022-07-04T01:07:49;101466.84;;;13.03;47.36
70256;BME280;57669;52.624;-1.688;2022-07-04T01:10:15;101460.59;;;12.75;48.10
70256;BME280;57669;52.624;-1.688;2022-07-04T01:12:41;101449.36;;;13.16;47.32
70256;BME280;57669;52.624;-1.688;2022-07-04T01:15:08;101452.43;;;12.39;48.16
70256;BME280;57669;52.624;-1.688;2022-07-04T01:17:32;101459.32;;;13.04;47.36
70256;BME280;57669;52.624;-1.688;2022-07-04T01:19:59;101462.57;;;12.61;48.66
70256;BME280;57669;52.624;-1.688;2022-07-04T01:22:24;101442.75;;;12.87;48.09
70256;BME280;57669;52.624;-1.688;2022-07-04T01:24:50;101441.67;;;12.30;48.99
70256;BME280;57669;52.624;-1.688;2022-07-04T01:27:15;101446.85;;;12.71;48.34
70256;BME280;57669;52.624;-1.688;2022-07-04T01:29:42;101447.10;;;12.57;48.53
70256;BME280;57669;52.624;-1.688;2022-07-04T01:32:08;101442.98;;;12.52;48.99
70256;BME280;57669;52.624;-1.688;2022-07-04T01:34:32;101442.65;;;11.92;49.63
70256;BME280;57669;52.624;-1.688;2022-07-04T01:36:59;101436.22;;;12.82;47.78
70256;BME280;57669;52.624;-1.688;2022-07-04T01:39:24;101450.82;;;12.90;48.75
70256;BME280;57669;52.624;-1.688;2022-07-04T01:41:50;101450.38;;;11.89;50.33
70256;BME280;57669;52.624;-1.688;2022-07-04T01:44:15;101436.66;;;12.21;50.15
70256;BME280;57669;52.624;-1.688;2022-07-04T01:46:42;101430.48;;;11.99;50.27
70256;BME280;57669;52.624;-1.688;2022-07-04T01:49:07;101440.30;;;12.47;48.77
70256;BME280;57669;52.624;-1.688;2022-07-04T01:51:32;101442.29;;;12.04;50.44
70256;BME280;57669;52.624;-1.688;2022-07-04T01:53:58;101446.59;;;12.36;49.09
70256;BME280;57669;52.624;-1.688;2022-07-04T01:56:24;101453.68;;;12.48;48.73
70256;BME280;57669;52.624;-1.688;2022-07-04T01:58:50;101455.56;;;12.46;48.62
70256;BME280;57669;52.624;-1.688;2022-07-04T02:01:15;101455.46;;;12.14;49.15
70256;BME280;57669;52.624;-1.688;2022-07-04T02:03:42;101453.11;;;12.37;48.87
70256;BME280;57669;52.624;-1.688;2022-07-04T02:06:12;101451.92;;;12.16;49.12
70256;BME280;57669;52.624;-1.688;2022-07-04T02:08:33;101460.61;;;12.29;48.95
70256;BME280;57669;52.624;-1.688;2022-07-04T02:10:59;101459.69;;;11.95;49.35
70256;BME280;57669;52.624;-1.688;2022-07-04T02:13:24;101463.59;;;12.65;48.28
70256;BME280;57669;52.624;-1.688;2022-07-04T02:15:50;101469.78;;;12.42;48.17
70256;BME280;57669;52.624;-1.688;2022-07-04T02:18:16;101461.83;;;12.75;47.96
70256;BME280;57669;52.624;-1.688;2022-07-04T02:20:42;101458.46;;;12.81;47.51
70256;BME280;57669;52.624;-1.688;2022-07-04T02:23:07;101462.12;;;12.72;47.62
70256;BME280;57669;52.624;-1.688;2022-07-04T02:25:33;101460.30;;;12.61;47.31
70256;BME280;57669;52.624;-1.688;2022-07-04T02:27:59;101458.46;;;12.60;47.77
70256;BME280;57669;52.624;-1.688;2022-07-04T02:30:25;101461.94;;;12.68;47.22
70256;BME280;57669;52.624;-1.688;2022-07-04T02:32:50;101451.88;;;13.04;46.96
70256;BME280;57669;52.624;-1.688;2022-07-04T02:35:16;101449.80;;;13.10;46.31
70256;BME280;57669;52.624;-1.688;2022-07-04T02:37:42;101453.79;;;13.09;46.64
70256;BME280;57669;52.624;-1.688;2022-07-04T02:40:08;101459.26;;;13.04;46.25
70256;BME280;57669;52.624;-1.688;2022-07-04T02:42:35;101460.06;;;13.14;45.97
70256;BME280;57669;52.624;-1.688;2022-07-04T02:44:59;101457.91;;;13.57;45.30
70256;BME280;57669;52.624;-1.688;2022-07-04T02:47:25;101455.63;;;13.57;45.29
70256;BME280;57669;52.624;-1.688;2022-07-04T02:49:51;101438.19;;;13.07;45.69
70256;BME280;57669;52.624;-1.688;2022-07-04T02:52:16;101441.46;;;13.31;45.75
70256;BME280;57669;52.624;-1.688;2022-07-04T02:54:42;101445.16;;;13.11;46.32
70256;BME280;57669;52.624;-1.688;2022-07-04T02:57:08;101442.49;;;12.45;46.57
70256;BME280;57669;52.624;-1.688;2022-07-04T02:59:34;101443.80;;;12.97;46.54
70256;BME280;57669;52.624;-1.688;2022-07-04T03:01:59;101441.58;;;13.11;46.28
70256;BME280;57669;52.624;-1.688;2022-07-04T03:04:25;101448.49;;;13.66;45.11
70256;BME280;57669;52.624;-1.688;2022-07-04T03:06:51;101447.63;;;13.07;46.30
70256;BME280;57669;52.624;-1.688;2022-07-04T03:09:17;101451.49;;;13.09;46.27
70256;BME280;57669;52.624;-1.688;2022-07-04T03:11:43;101445.38;;;13.23;46.29
70256;BME280;57669;52.624;-1.688;2022-07-04T03:14:08;101442.94;;;12.50;47.32
70256;BME280;57669;52.624;-1.688;2022-07-04T03:16:34;101438.48;;;12.78;47.25
70256;BME280;57669;52.624;-1.688;2022-07-04T03:19:00;101435.05;;;12.57;47.55
70256;BME280;57669;52.624;-1.688;2022-07-04T03:21:25;101437.33;;;12.30;48.40
70256;BME280;57669;52.624;-1.688;2022-07-04T03:23:51;101438.10;;;12.18;48.65
70256;BME280;57669;52.624;-1.688;2022-07-04T03:26:17;101435.83;;;12.39;48.01
70256;BME280;57669;52.624;-1.688;2022-07-04T03:28:42;101432.95;;;12.81;47.70
70256;BME280;57669;52.624;-1.688;2022-07-04T03:31:08;101436.46;;;12.09;48.43
70256;BME280;57669;52.624;-1.688;2022-07-04T03:33:34;101432.61;;;12.97;47.44
70256;BME280;57669;52.624;-1.688;2022-07-04T03:36:00;101434.29;;;12.46;48.19
70256;BME280;57669;52.624;-1.688;2022-07-04T03:38:26;101422.46;;;12.51;48.26
70256;BME280;57669;52.624;-1.688;2022-07-04T03:40:51;101421.38;;;11.87;48.53
70256;BME280;57669;52.624;-1.688;2022-07-04T03:43:17;101419.38;;;12.44;47.93
70256;BME280;57669;52.624;-1.688;2022-07-04T03:48:09;101417.07;;;12.56;47.67
70256;BME280;57669;52.624;-1.688;2022-07-04T03:50:34;101417.60;;;12.37;48.48
70256;BME280;57669;52.624;-1.688;2022-07-04T03:53:00;101418.63;;;12.09;48.69
70256;BME280;57669;52.624;-1.688;2022-07-04T03:57:52;101423.14;;;12.19;48.89
70256;BME280;57669;52.624;-1.688;2022-07-04T04:00:17;101429.48;;;12.15;48.48
70256;BME280;57669;52.624;-1.688;2022-07-04T04:02:43;101427.73;;;12.23;48.51
70256;BME280;57669;52.624;-1.688;2022-07-04T04:05:09;101426.83;;;12.23;48.51
70256;BME280;57669;52.624;-1.688;2022-07-04T04:07:35;101426.73;;;12.59;47.90
70256;BME280;57669;52.624;-1.688;2022-07-04T04:10:00;101427.06;;;12.02;49.34
70256;BME280;57669;52.624;-1.688;2022-07-04T04:12:26;101423.00;;;11.48;50.49
70256;BME280;57669;52.624;-1.688;2022-07-04T04:14:52;101430.42;;;12.14;49.32
70256;BME280;57669;52.624;-1.688;2022-07-04T04:17:18;101431.43;;;12.24;49.14
70256;BME280;57669;52.624;-1.688;2022-07-04T04:19:44;101424.07;;;12.38;48.44
70256;BME280;57669;52.624;-1.688;2022-07-04T04:22:09;101434.76;;;11.93;49.69
70256;BME280;57669;52.624;-1.688;2022-07-04T04:24:35;101432.13;;;11.90;49.87
70256;BME280;57669;52.624;-1.688;2022-07-04T04:27:01;101435.37;;;12.17;49.28
70256;BME280;57669;52.624;-1.688;2022-07-04T04:29:31;101440.79;;;12.01;50.41
70256;BME280;57669;52.624;-1.688;2022-07-04T04:31:52;101444.51;;;11.53;51.20
70256;BME280;57669;52.624;-1.688;2022-07-04T04:34:18;101442.07;;;11.64;50.66
70256;BME280;57669;52.624;-1.688;2022-07-04T04:36:44;101435.38;;;11.87;51.27
70256;BME280;57669;52.624;-1.688;2022-07-04T04:39:10;101435.44;;;11.35;52.25
70256;BME280;57669;52.624;-1.688;2022-07-04T04:41:35;101433.79;;;11.26;52.83
70256;BME280;57669;52.624;-1.688;2022-07-04T04:44:01;101437.45;;;11.82;51.59
70256;BME280;57669;52.624;-1.688;2022-07-04T04:46:27;101436.00;;;11.24;52.98
70256;BME280;57669;52.624;-1.688;2022-07-04T04:48:53;101432.22;;;10.63;54.27
70256;BME280;57669;52.624;-1.688;2022-07-04T04:51:19;101435.96;;;11.41;53.16
70256;BME280;57669;52.624;-1.688;2022-07-04T04:53:44;101430.44;;;10.44;54.81
70256;BME280;57669;52.624;-1.688;2022-07-04T04:56:10;101434.06;;;11.27;54.26
70256;BME280;57669;52.624;-1.688;2022-07-04T04:58:36;101441.50;;;11.02;54.46
70256;BME280;57669;52.624;-1.688;2022-07-04T05:01:01;101443.37;;;10.45;55.75
70256;BME280;57669;52.624;-1.688;2022-07-04T05:03:27;101443.75;;;11.24;54.60
70256;BME280;57669;52.624;-1.688;2022-07-04T05:05:53;101444.27;;;10.71;55.13
70256;BME280;57669;52.624;-1.688;2022-07-04T05:08:19;101447.76;;;11.40;53.81
70256;BME280;57669;52.624;-1.688;2022-07-04T05:10:45;101445.99;;;11.19;53.81
70256;BME280;57669;52.624;-1.688;2022-07-04T05:13:10;101452.41;;;11.57;53.20
70256;BME280;57669;52.624;-1.688;2022-07-04T05:15:36;101451.39;;;11.55;53.31
70256;BME280;57669;52.624;-1.688;2022-07-04T05:18:02;101447.45;;;11.08;54.53
70256;BME280;57669;52.624;-1.688;2022-07-04T05:20:28;101447.24;;;11.25;54.40
70256;BME280;57669;52.624;-1.688;2022-07-04T05:22:53;101451.95;;;11.67;53.94
70256;BME280;57669;52.624;-1.688;2022-07-04T05:25:19;101451.26;;;11.63;54.16
70256;BME280;57669;52.624;-1.688;2022-07-04T05:27:45;101444.17;;;11.51;54.64
70256;BME280;57669;52.624;-1.688;2022-07-04T05:30:11;101445.29;;;11.51;55.63
70256;BME280;57669;52.624;-1.688;2022-07-04T05:32:38;101448.50;;;11.63;55.22
70256;BME280;57669;52.624;-1.688;2022-07-04T05:35:03;101442.65;;;11.56;55.73
70256;BME280;57669;52.624;-1.688;2022-07-04T05:37:28;101439.17;;;11.19;56.31
70256;BME280;57669;52.624;-1.688;2022-07-04T05:39:54;101443.10;;;11.34;55.83
70256;BME280;57669;52.624;-1.688;2022-07-04T05:42:19;101443.40;;;11.35;56.29
70256;BME280;57669;52.624;-1.688;2022-07-04T05:44:45;101441.16;;;11.24;56.19
70256;BME280;57669;52.624;-1.688;2022-07-04T05:47:11;101446.26;;;11.08;56.69
70256;BME280;57669;52.624;-1.688;2022-07-04T05:49:37;101448.39;;;11.66;54.72
70256;BME280;57669;52.624;-1.688;2022-07-04T05:52:03;101452.09;;;11.97;54.54
70256;BME280;57669;52.624;-1.688;2022-07-04T05:54:28;101456.08;;;11.76;55.09
70256;BME280;57669;52.624;-1.688;2022-07-04T05:56:54;101460.31;;;11.84;54.93
70256;BME280;57669;52.624;-1.688;2022-07-04T05:59:20;101456.17;;;11.89;54.88
70256;BME280;57669;52.624;-1.688;2022-07-04T06:01:45;101446.29;;;12.08;54.24
70256;BME280;57669;52.624;-1.688;2022-07-04T06:04:11;101447.47;;;12.21;53.71
70256;BME280;57669;52.624;-1.688;2022-07-04T06:06:37;101452.16;;;12.64;53.28
70256;BME280;57669;52.624;-1.688;2022-07-04T06:09:03;101448.90;;;12.58;53.05
70256;BME280;57669;52.624;-1.688;2022-07-04T06:11:28;101446.55;;;11.79;54.55
70256;BME280;57669;52.624;-1.688;2022-07-04T06:13:54;101449.52;;;11.97;54.74
70256;BME280;57669;52.624;-1.688;2022-07-04T06:16:20;101459.13;;;11.83;54.52
70256;BME280;57669;52.624;-1.688;2022-07-04T06:18:45;101456.19;;;12.72;53.72
70256;BME280;57669;52.624;-1.688;2022-07-04T06:21:11;101455.92;;;12.14;54.53
70256;BME280;57669;52.624;-1.688;2022-07-04T06:23:37;101455.24;;;12.67;52.93
70256;BME280;57669;52.624;-1.688;2022-07-04T06:26:03;101458.45;;;12.75;52.65
70256;BME280;57669;52.624;-1.688;2022-07-04T06:28:29;101460.61;;;12.67;53.16
70256;BME280;57669;52.624;-1.688;2022-07-04T06:30:54;101464.11;;;12.67;53.37
70256;BME280;57669;52.624;-1.688;2022-07-04T06:33:20;101460.51;;;12.66;54.06
70256;BME280;57669;52.624;-1.688;2022-07-04T06:35:46;101455.65;;;13.07;52.82
70256;BME280;57669;52.624;-1.688;2022-07-04T06:38:13;101461.94;;;12.87;53.38
70256;BME280;57669;52.624;-1.688;2022-07-04T06:40:38;101461.10;;;12.11;54.35
70256;BME280;57669;52.624;-1.688;2022-07-04T06:43:03;101451.48;;;13.27;52.73
70256;BME280;57669;52.624;-1.688;2022-07-04T06:45:29;101447.52;;;12.78;52.26
70256;BME280;57669;52.624;-1.688;2022-07-04T06:47:55;101453.54;;;12.77;52.28
70256;BME280;57669;52.624;-1.688;2022-07-04T06:50:21;101450.00;;;12.51;53.48
70256;BME280;57669;52.624;-1.688;2022-07-04T06:52:46;101452.44;;;12.85;53.57
70256;BME280;57669;52.624;-1.688;2022-07-04T06:55:12;101446.70;;;12.79;52.91
70256;BME280;57669;52.624;-1.688;2022-07-04T06:57:37;101449.83;;;12.85;53.61
70256;BME280;57669;52.624;-1.688;2022-07-04T07:00:04;101434.80;;;13.19;52.14
70256;BME280;57669;52.624;-1.688;2022-07-04T07:02:28;101439.59;;;13.24;51.35
70256;BME280;57669;52.624;-1.688;2022-07-04T07:04:54;101447.11;;;12.36;52.55
70256;BME280;57669;52.624;-1.688;2022-07-04T07:07:19;101445.32;;;13.02;53.01
70256;BME280;57669;52.624;-1.688;2022-07-04T07:09:45;101440.99;;;12.96;51.75
70256;BME280;57669;52.624;-1.688;2022-07-04T07:12:11;101435.96;;;12.22;52.41
70256;BME280;57669;52.624;-1.688;2022-07-04T07:14:36;101435.88;;;12.90;52.17
70256;BME280;57669;52.624;-1.688;2022-07-04T07:17:02;101431.86;;;13.10;51.11
70256;BME280;57669;52.624;-1.688;2022-07-04T07:19:28;101442.63;;;12.56;52.23
70256;BME280;57669;52.624;-1.688;2022-07-04T07:21:53;101427.87;;;13.24;51.25
70256;BME280;57669;52.624;-1.688;2022-07-04T07:24:19;101432.69;;;12.86;51.16
70256;BME280;57669;52.624;-1.688;2022-07-04T07:26:45;101429.93;;;12.68;50.85
70256;BME280;57669;52.624;-1.688;2022-07-04T07:29:11;101426.25;;;13.29;51.10
70256;BME280;57669;52.624;-1.688;2022-07-04T07:31:37;101429.21;;;13.05;51.80
70256;BME280;57669;52.624;-1.688;2022-07-04T07:34:02;101425.21;;;13.38;50.71
70256;BME280;57669;52.624;-1.688;2022-07-04T07:36:28;101424.88;;;13.24;49.64
70256;BME280;57669;52.624;-1.688;2022-07-04T07:38:53;101433.76;;;12.53;52.54
70256;BME280;57669;52.624;-1.688;2022-07-04T07:41:19;101426.88;;;13.19;51.85
70256;BME280;57669;52.624;-1.688;2022-07-04T07:43:45;101426.28;;;12.97;50.47
70256;BME280;57669;52.624;-1.688;2022-07-04T07:46:11;101429.83;;;12.93;51.62
70256;BME280;57669;52.624;-1.688;2022-07-04T07:48:36;101429.12;;;13.26;51.02
70256;BME280;57669;52.624;-1.688;2022-07-04T07:51:02;101435.91;;;13.18;50.09
70256;BME280;57669;52.624;-1.688;2022-07-04T07:53:28;101432.02;;;13.45;49.27
70256;BME280;57669;52.624;-1.688;2022-07-04T07:55:53;101446.84;;;13.25;50.89
70256;BME280;57669;52.624;-1.688;2022-07-04T07:58:19;101437.26;;;13.37;49.88
70256;BME280;57669;52.624;-1.688;2022-07-04T08:00:44;101438.64;;;13.16;51.00
70256;BME280;57669;52.624;-1.688;2022-07-04T08:03:10;101440.77;;;13.11;50.12
70256;BME280;57669;52.624;-1.688;2022-07-04T08:05:37;101443.88;;;13.16;50.91
70256;BME280;57669;52.624;-1.688;2022-07-04T08:08:01;101439.81;;;13.08;50.92
70256;BME280;57669;52.624;-1.688;2022-07-04T08:10:27;101428.33;;;13.35;49.85
70256;BME280;57669;52.624;-1.688;2022-07-04T08:12:53;101449.62;;;14.01;48.19
70256;BME280;57669;52.624;-1.688;2022-07-04T08:15:19;101445.85;;;13.83;48.18
70256;BME280;57669;52.624;-1.688;2022-07-04T08:17:44;101440.97;;;13.03;48.09
70256;BME280;57669;52.624;-1.688;2022-07-04T08:20:10;101442.14;;;13.85;47.94
70256;BME280;57669;52.624;-1.688;2022-07-04T08:22:36;101444.53;;;13.74;47.23
70256;BME280;57669;52.624;-1.688;2022-07-04T08:25:02;101457.18;;;13.46;47.68
70256;BME280;57669;52.624;-1.688;2022-07-04T08:27:27;101460.40;;;14.17;46.86
70256;BME280;57669;52.624;-1.688;2022-07-04T08:29:53;101455.26;;;14.07;46.31
70256;BME280;57669;52.624;-1.688;2022-07-04T08:32:18;101457.13;;;13.38;47.94
70256;BME280;57669;52.624;-1.688;2022-07-04T08:34:44;101466.53;;;13.61;47.32
70256;BME280;57669;52.624;-1.688;2022-07-04T08:37:10;101476.02;;;13.31;48.68
70256;BME280;57669;52.624;-1.688;2022-07-04T08:39:35;101470.95;;;13.82;47.96
70256;BME280;57669;52.624;-1.688;2022-07-04T08:42:03;101472.38;;;14.42;46.50
70256;BME280;57669;52.624;-1.688;2022-07-04T08:44:27;101469.25;;;14.18;46.70
70256;BME280;57669;52.624;-1.688;2022-07-04T08:46:53;101466.71;;;14.30;46.62
70256;BME280;57669;52.624;-1.688;2022-07-04T08:49:21;101465.79;;;13.80;47.97
70256;BME280;57669;52.624;-1.688;2022-07-04T08:51:49;101470.85;;;14.27;46.80
70256;BME280;57669;52.624;-1.688;2022-07-04T08:54:13;101475.14;;;13.46;47.37
70256;BME280;57669;52.624;-1.688;2022-07-04T08:56:41;101474.32;;;13.55;48.22
70256;BME280;57669;52.624;-1.688;2022-07-04T08:59:01;101468.21;;;13.80;47.97
70256;BME280;57669;52.624;-1.688;2022-07-04T09:01:27;101465.72;;;13.54;48.89
70256;BME280;57669;52.624;-1.688;2022-07-04T09:03:53;101467.30;;;14.05;48.04
70256;BME280;57669;52.624;-1.688;2022-07-04T09:06:18;101473.85;;;14.18;47.78
70256;BME280;57669;52.624;-1.688;2022-07-04T09:08:43;101470.77;;;13.70;48.28
70256;BME280;57669;52.624;-1.688;2022-07-04T09:11:09;101472.86;;;14.06;48.26
70256;BME280;57669;52.624;-1.688;2022-07-04T09:13:35;101487.99;;;12.95;49.57
70256;BME280;57669;52.624;-1.688;2022-07-04T09:16:01;101485.31;;;12.82;50.38
70256;BME280;57669;52.624;-1.688;2022-07-04T09:18:28;101475.27;;;12.41;51.67
70256;BME280;57669;52.624;-1.688;2022-07-04T09:20:53;101472.34;;;13.21;49.64
70256;BME280;57669;52.624;-1.688;2022-07-04T09:23:21;101480.74;;;13.46;49.36
70256;BME280;57669;52.624;-1.688;2022-07-04T09:25:43;101476.62;;;13.38;49.45
70256;BME280;57669;52.624;-1.688;2022-07-04T09:28:09;101475.57;;;12.89;50.52
70256;BME280;57669;52.624;-1.688;2022-07-04T09:33:00;101470.13;;;13.24;49.70
70256;BME280;57669;52.624;-1.688;2022-07-04T09:35:28;101472.15;;;14.36;46.81
70256;BME280;57669;52.624;-1.688;2022-07-04T09:37:54;101477.63;;;13.46;47.23
70256;BME280;57669;52.624;-1.688;2022-07-04T09:40:23;101485.12;;;14.18;46.86
70256;BME280;57669;52.624;-1.688;2022-07-04T09:42:43;101487.17;;;13.51;48.43
70256;BME280;57669;52.624;-1.688;2022-07-04T09:45:10;101486.68;;;13.55;48.22
70256;BME280;57669;52.624;-1.688;2022-07-04T09:47:36;101480.81;;;13.99;48.43
70256;BME280;57669;52.624;-1.688;2022-07-04T09:50:02;101474.93;;;14.00;47.44
70256;BME280;57669;52.624;-1.688;2022-07-04T09:52:26;101478.73;;;13.90;47.25
70256;BME280;57669;52.624;-1.688;2022-07-04T09:54:52;101485.73;;;14.36;46.53
70256;BME280;57669;52.624;-1.688;2022-07-04T09:57:22;101477.54;;;13.62;47.06
70256;BME280;57669;52.624;-1.688;2022-07-04T09:59:43;101481.93;;;14.87;45.64
70256;BME280;57669;52.624;-1.688;2022-07-04T10:02:10;101483.26;;;14.95;42.64
70256;BME280;57669;52.624;-1.688;2022-07-04T10:04:41;101486.97;;;14.41;44.74
70256;BME280;57669;52.624;-1.688;2022-07-04T10:07:00;101484.88;;;15.66;42.71
70256;BME280;57669;52.624;-1.688;2022-07-04T10:09:28;101489.20;;;14.47;43.68
70256;BME280;57669;52.624;-1.688;2022-07-04T10:11:51;101486.94;;;15.16;43.43
70256;BME280;57669;52.624;-1.688;2022-07-04T10:14:17;101491.20;;;14.90;43.77
70256;BME280;57669;52.624;-1.688;2022-07-04T10:16:42;101498.77;;;14.44;44.77
70256;BME280;57669;52.624;-1.688;2022-07-04T10:19:09;101487.30;;;14.56;44.33
70256;BME280;57669;52.624;-1.688;2022-07-04T10:21:34;101491.71;;;14.25;45.18
70256;BME280;57669;52.624;-1.688;2022-07-04T10:24:00;101499.40;;;14.67;45.17
70256;BME280;57669;52.624;-1.688;2022-07-04T10:26:27;101487.74;;;14.89;43.77
70256;BME280;57669;52.624;-1.688;2022-07-04T10:31:16;101486.20;;;15.68;42.52
70256;BME280;57669;52.624;-1.688;2022-07-04T10:33:43;101491.42;;;16.00;40.73
70256;BME280;57669;52.624;-1.688;2022-07-04T10:36:13;101485.40;;;15.40;41.28
70256;BME280;57669;52.624;-1.688;2022-07-04T10:38:35;101488.17;;;15.83;41.51
70256;BME280;57669;52.624;-1.688;2022-07-04T10:41:03;101480.97;;;15.94;39.91
70256;BME280;57669;52.624;-1.688;2022-07-04T10:45:50;101491.38;;;15.99;39.60
70256;BME280;57669;52.624;-1.688;2022-07-04T10:48:19;101499.36;;;15.59;40.96
70256;BME280;57669;52.624;-1.688;2022-07-04T10:53:09;101496.33;;;14.71;43.03
70256;BME280;57669;52.624;-1.688;2022-07-04T10:55:33;101496.42;;;15.12;42.99
70256;BME280;57669;52.624;-1.688;2022-07-04T10:57:58;101494.48;;;14.67;43.70
70256;BME280;57669;52.624;-1.688;2022-07-04T11:00:24;101489.56;;;14.96;42.04
70256;BME280;57669;52.624;-1.688;2022-07-04T11:05:15;101491.95;;;15.92;40.33
70256;BME280;57669;52.624;-1.688;2022-07-04T11:12:32;101492.80;;;17.27;37.23
70256;BME280;57669;52.624;-1.688;2022-07-04T11:14:58;101492.23;;;16.67;38.06
70256;BME280;57669;52.624;-1.688;2022-07-04T11:17:27;101491.78;;;16.69;37.61
70256;BME280;57669;52.624;-1.688;2022-07-04T11:19:55;101490.23;;;16.12;39.41
70256;BME280;57669;52.624;-1.688;2022-07-04T11:22:21;101486.25;;;15.30;40.56
70256;BME280;57669;52.624;-1.688;2022-07-04T11:24:41;101491.91;;;15.13;41.30
70256;BME280;57669;52.624;-1.688;2022-07-04T11:27:08;101492.29;;;15.17;41.71
70256;BME280;57669;52.624;-1.688;2022-07-04T11:29:32;101494.84;;;15.34;40.43
70256;BME280;57669;52.624;-1.688;2022-07-04T11:31:58;101501.18;;;16.45;39.63
70256;BME280;57669;52.624;-1.688;2022-07-04T11:34:24;101500.29;;;16.63;38.76
70256;BME280;57669;52.624;-1.688;2022-07-04T11:36:50;101498.62;;;16.00;39.40
70256;BME280;57669;52.624;-1.688;2022-07-04T11:39:16;101496.16;;;16.09;40.40
70256;BME280;57669;52.624;-1.688;2022-07-04T11:41:42;101497.76;;;16.42;39.86
70256;BME280;57669;52.624;-1.688;2022-07-04T11:44:08;101496.92;;;15.69;40.36
70256;BME280;57669;52.624;-1.688;2022-07-04T11:46:32;101496.91;;;16.12;39.27
70256;BME280;57669;52.624;-1.688;2022-07-04T11:49:08;101497.16;;;15.66;40.48
70256;BME280;57669;52.624;-1.688;2022-07-04T11:51:23;101501.51;;;15.89;40.45
70256;BME280;57669;52.624;-1.688;2022-07-04T11:56:14;101513.70;;;16.86;38.92
70256;BME280;57669;52.624;-1.688;2022-07-04T11:58:40;101504.54;;;16.39;39.88
70256;BME280;57669;52.624;-1.688;2022-07-04T12:01:05;101509.70;;;16.15;39.95
70256;BME280;57669;52.624;-1.688;2022-07-04T12:03:32;101506.76;;;16.70;38.82
70256;BME280;57669;52.624;-1.688;2022-07-04T12:06:00;101501.51;;;17.88;37.55
70256;BME280;57669;52.624;-1.688;2022-07-04T12:08:22;101492.57;;;17.90;35.68
70256;BME280;57669;52.624;-1.688;2022-07-04T12:10:48;101495.06;;;17.88;35.84
70256;BME280;57669;52.624;-1.688;2022-07-04T12:13:15;101501.26;;;16.59;38.96
70256;BME280;57669;52.624;-1.688;2022-07-04T12:15:40;101499.09;;;15.86;41.04
70256;BME280;57669;52.624;-1.688;2022-07-04T12:18:10;101499.03;;;16.49;40.88
70256;BME280;57669;52.624;-1.688;2022-07-04T12:20:30;101488.13;;;16.88;39.50
70256;BME280;57669;52.624;-1.688;2022-07-04T12:22:58;101495.57;;;17.37;38.64
70256;BME280;57669;52.624;-1.688;2022-07-04T12:25:24;101477.58;;;17.39;38.54
70256;BME280;57669;52.624;-1.688;2022-07-04T12:27:52;101467.77;;;17.98;35.32
70256;BME280;57669;52.624;-1.688;2022-07-04T12:30:13;101485.57;;;18.48;34.31
70256;BME280;57669;52.624;-1.688;2022-07-04T12:32:44;101474.83;;;18.99;32.62
70256;BME280;57669;52.624;-1.688;2022-07-04T12:35:05;101471.95;;;19.68;32.63
70256;BME280;57669;52.624;-1.688;2022-07-04T12:37:30;101463.56;;;19.34;31.26
70256;BME280;57669;52.624;-1.688;2022-07-04T12:42:21;101466.19;;;18.93;32.27
70256;BME280;57669;52.624;-1.688;2022-07-04T12:44:47;101479.93;;;17.15;34.63
70256;BME280;57669;52.624;-1.688;2022-07-04T12:47:12;101485.44;;;17.20;35.46
70256;BME280;57669;52.624;-1.688;2022-07-04T12:49:42;101479.83;;;17.79;34.69
70256;BME280;57669;52.624;-1.688;2022-07-04T12:52:07;101481.84;;;18.09;34.42
70256;BME280;57669;52.624;-1.688;2022-07-04T12:54:29;101477.31;;;18.36;33.91
70256;BME280;57669;52.624;-1.688;2022-07-04T12:59:20;101471.66;;;19.33;32.12
70256;BME280;57669;52.624;-1.688;2022-07-04T13:01:46;101467.97;;;19.81;31.21